Time;durP1;ratioP1;P1;durP2;ratioP2;P2;SDS_P1;SDS_P2;PMS_P1;PMS_P2;Temp;Humidity;BMP_temperature;BMP_pressure;BME280_temperature;BME280_humidity;BME280_pressure;Samples;Min_cycle;Max_cycle;Signal;HPM_P1;HPM_P2
2024/01/19 00:00:03;;;;;;;37.93;23.70;;;-0.10;99.90;;;;;;4992748;28;20453;-78
2024/01/19 00:02:56;;;;;;;39.47;24.47;;;0.00;99.90;;;;;;4992404;28;20484;-77
2024/01/19 00:05:36;;;;;;;35.13;23.67;;;0.00;99.90;;;;;;5002853;28;20509;-77
2024/01/19 00:08:35;;;;;;;31.60;23.27;;;0.00;99.90;;;;;;5032549;28;20451;-77
2024/01/19 00:17:44;;;;;;;32.73;22.67;;;-0.30;99.90;;;;;;4996281;28;20914;-78
2024/01/19 00:23:31;;;;;;;31.20;22.77;;;0.00;99.90;;;;;;4980540;28;20455;-77
2024/01/19 00:26:25;;;;;;;33.93;23.67;;;-0.20;99.90;;;;;;4980551;28;20448;-79
2024/01/19 00:32:00;;;;;;;31.13;21.00;;;0.20;99.90;;;;;;5007070;28;20444;-77
2024/01/19 00:34:43;;;;;;;31.50;22.80;;;-0.10;99.90;;;;;;5010209;28;20540;-77
2024/01/19 00:37:39;;;;;;;31.93;22.30;;;-0.30;99.90;;;;;;5005077;28;20460;-78
2024/01/19 00:40:49;;;;;;;30.13;21.33;;;-0.10;99.90;;;;;;5004676;28;20467;-78
2024/01/19 00:43:50;;;;;;;33.00;21.20;;;-0.10;99.90;;;;;;5002859;28;20479;-78
2024/01/19 00:46:39;;;;;;;30.67;21.17;;;-0.10;99.90;;;;;;5002571;28;20448;-77
2024/01/19 00:52:24;;;;;;;30.60;21.27;;;-0.20;99.90;;;;;;5001628;28;20463;-77
2024/01/19 01:01:30;;;;;;;35.33;23.90;;;-0.10;99.90;;;;;;4999949;28;20459;-78
2024/01/19 01:04:19;;;;;;;30.87;22.43;;;-0.30;99.90;;;;;;4998810;28;20543;-78
2024/01/19 01:07:06;;;;;;;35.77;24.13;;;-0.10;99.90;;;;;;4996947;28;20463;-76
2024/01/19 01:09:59;;;;;;;31.47;21.77;;;0.00;99.90;;;;;;4997248;28;20456;-80
2024/01/19 01:12:38;;;;;;;31.90;21.47;;;-0.10;99.90;;;;;;4999748;28;20475;-77
2024/01/19 01:15:15;;;;;;;31.37;21.93;;;0.00;99.90;;;;;;5002781;28;20455;-78
2024/01/19 01:17:52;;;;;;;27.40;20.40;;;0.00;99.90;;;;;;5002920;28;20432;-77
2024/01/19 01:20:47;;;;;;;35.80;24.83;;;0.00;99.90;;;;;;5001896;28;20474;-78
2024/01/19 01:23:31;;;;;;;28.83;20.63;;;-0.20;99.90;;;;;;5001604;28;20533;-77
2024/01/19 01:28:59;;;;;;;28.17;21.33;;;0.00;99.90;;;;;;4999354;28;20527;-78
2024/01/19 01:31:48;;;;;;;29.63;21.47;;;0.00;99.90;;;;;;5002742;28;20472;-77
2024/01/19 01:34:31;;;;;;;32.27;21.23;;;-0.10;99.90;;;;;;4993397;28;20480;-77
2024/01/19 01:37:09;;;;;;;30.33;21.30;;;-0.10;99.90;;;;;;5001268;28;20477;-78
2024/01/19 01:39:46;;;;;;;31.60;22.40;;;-0.10;99.90;;;;;;5002813;28;20524;-78
2024/01/19 01:42:14;;;;;;;30.20;20.27;;;-0.10;99.90;;;;;;5001919;28;20568;-77
2024/01/19 01:45:00;;;;;;;29.87;21.17;;;0.00;99.90;;;;;;5002701;28;20475;-77
2024/01/19 01:47:34;;;;;;;31.70;21.57;;;-0.10;99.90;;;;;;5002035;28;20462;-78
2024/01/19 01:50:22;;;;;;;33.70;21.87;;;-0.30;99.90;;;;;;5002573;28;20456;-78
2024/01/19 01:53:01;;;;;;;29.40;22.33;;;0.00;99.90;;;;;;5002799;28;20480;-77
2024/01/19 01:55:33;;;;;;;33.83;21.60;;;0.00;99.90;;;;;;5001506;28;20460;-78
2024/01/19 01:58:04;;;;;;;31.67;23.07;;;-0.10;99.90;;;;;;5002351;28;20472;-77
2024/01/19 02:00:43;;;;;;;30.70;22.10;;;0.00;99.90;;;;;;5001239;28;20452;-77
2024/01/19 02:03:15;;;;;;;29.27;21.37;;;0.00;99.90;;;;;;5002308;28;20463;-77
2024/01/19 02:05:57;;;;;;;31.97;22.77;;;-0.10;99.90;;;;;;5000939;28;20459;-77
2024/01/19 02:08:33;;;;;;;37.27;22.93;;;-0.10;99.90;;;;;;5001886;28;20456;-80
2024/01/19 02:11:05;;;;;;;30.07;20.30;;;-0.10;99.90;;;;;;5000243;28;20507;-77
2024/01/19 02:13:39;;;;;;;29.87;19.83;;;0.00;99.90;;;;;;5000839;28;20480;-79
2024/01/19 02:16:21;;;;;;;28.53;21.37;;;0.00;99.90;;;;;;5000817;28;20480;-76
2024/01/19 02:19:05;;;;;;;30.17;21.23;;;0.00;99.90;;;;;;5000701;28;20596;-77
2024/01/19 02:21:44;;;;;;;30.40;22.60;;;0.00;99.90;;;;;;5000870;28;20448;-76
2024/01/19 02:24:28;;;;;;;29.00;20.73;;;0.00;99.90;;;;;;5000329;28;20643;-78
2024/01/19 02:27:07;;;;;;;28.70;20.30;;;0.20;99.90;;;;;;4998652;28;20491;-78
2024/01/19 02:29:54;;;;;;;25.80;21.27;;;0.00;99.90;;;;;;4999591;28;20528;-77
2024/01/19 02:33:04;;;;;;;30.70;20.60;;;0.00;99.90;;;;;;4999604;28;20492;-77
2024/01/19 02:36:00;;;;;;;27.97;21.17;;;0.00;99.90;;;;;;4999266;28;20508;-78
2024/01/19 02:38:43;;;;;;;29.07;21.20;;;0.00;99.90;;;;;;4999058;28;20475;-78
2024/01/19 02:41:29;;;;;;;27.43;22.50;;;-0.20;99.90;;;;;;4999109;28;20467;-77
2024/01/19 02:44:35;;;;;;;26.57;21.23;;;0.10;99.90;;;;;;5000307;28;20498;-76
2024/01/19 02:47:34;;;;;;;23.43;20.07;;;0.00;99.90;;;;;;4999749;28;20475;-76
2024/01/19 02:50:39;;;;;;;31.60;21.17;;;0.00;99.90;;;;;;4998471;28;20448;-77
2024/01/19 02:53:18;;;;;;;29.93;20.10;;;0.00;99.90;;;;;;4978631;28;20476;-77
2024/01/19 02:56:19;;;;;;;24.93;19.90;;;0.00;99.90;;;;;;5000247;28;20452;-78
2024/01/19 03:02:12;;;;;;;25.77;18.80;;;-0.10;99.90;;;;;;4996412;28;20428;-79
2024/01/19 03:05:04;;;;;;;26.47;20.60;;;-0.10;99.90;;;;;;5000057;28;20449;-78
2024/01/19 03:10:44;;;;;;;28.47;20.60;;;-0.10;99.90;;;;;;4947912;28;20470;-77
2024/01/19 03:19:36;;;;;;;27.27;20.83;;;-0.20;99.90;;;;;;4977271;28;20947;-77
2024/01/19 03:22:29;;;;;;;31.00;20.87;;;-0.20;99.90;;;;;;4979329;28;20564;-77
2024/01/19 03:25:29;;;;;;;30.17;22.40;;;-0.20;99.90;;;;;;4978712;28;20504;-79
2024/01/19 03:28:10;;;;;;;29.40;20.63;;;-0.30;99.90;;;;;;4978718;28;20453;-77
2024/01/19 03:31:05;;;;;;;34.70;22.77;;;-0.20;99.90;;;;;;4978969;28;20540;-78
2024/01/19 03:33:39;;;;;;;28.73;21.20;;;-0.20;99.90;;;;;;4978943;28;20521;-78
2024/01/19 03:36:35;;;;;;;29.80;22.43;;;-0.20;99.90;;;;;;4980235;28;20512;-77
2024/01/19 03:39:23;;;;;;;26.23;19.40;;;-0.20;99.90;;;;;;4981635;28;20460;-79
2024/01/19 03:42:11;;;;;;;27.30;20.70;;;-0.30;99.90;;;;;;4984041;28;20473;-77
2024/01/19 03:44:50;;;;;;;27.50;20.80;;;-0.40;99.90;;;;;;4980380;28;20943;-77
2024/01/19 03:50:48;;;;;;;27.70;20.80;;;-0.50;99.90;;;;;;4982827;28;20464;-77
2024/01/19 03:53:40;;;;;;;26.00;19.93;;;-0.50;99.90;;;;;;4982142;28;20484;-77
2024/01/19 03:56:39;;;;;;;28.43;21.87;;;-0.50;99.90;;;;;;4981395;28;20477;-77
2024/01/19 03:59:26;;;;;;;27.40;20.97;;;-0.40;99.90;;;;;;4981979;28;20899;-76
2024/01/19 04:02:25;;;;;;;23.33;18.83;;;-0.40;99.90;;;;;;4981859;28;20854;-77
2024/01/19 04:05:43;;;;;;;28.90;20.57;;;-0.40;99.90;;;;;;4980694;28;20453;-76
2024/01/19 04:08:32;;;;;;;26.23;20.33;;;-0.40;99.90;;;;;;4978896;28;20456;-78
2024/01/19 04:11:20;;;;;;;26.33;19.83;;;-0.40;99.90;;;;;;4977145;28;20489;-76
2024/01/19 04:14:11;;;;;;;31.40;21.10;;;-0.40;99.90;;;;;;4976562;28;20849;-77
2024/01/19 04:17:21;;;;;;;26.97;20.63;;;-0.40;99.90;;;;;;4976547;28;20453;-77
2024/01/19 04:23:34;;;;;;;28.83;21.10;;;-0.40;99.90;;;;;;4984268;28;20468;-77
2024/01/19 04:26:31;;;;;;;27.40;21.93;;;-0.40;99.90;;;;;;4978739;28;20646;-78
2024/01/19 04:29:27;;;;;;;28.63;20.50;;;-0.20;99.90;;;;;;4984859;28;20527;-77
2024/01/19 04:32:07;;;;;;;23.33;20.23;;;-0.50;99.90;;;;;;4980895;28;20879;-76
2024/01/19 04:35:19;;;;;;;31.97;22.80;;;-0.50;99.90;;;;;;4978152;28;20851;-77
2024/01/19 04:38:04;;;;;;;29.10;21.10;;;-0.50;99.90;;;;;;4979145;28;20851;-76
2024/01/19 04:40:52;;;;;;;29.23;21.40;;;-0.50;99.90;;;;;;4979392;28;20461;-77
2024/01/19 04:43:40;;;;;;;28.53;20.43;;;-0.60;99.90;;;;;;4981651;28;20858;-78
2024/01/19 04:46:24;;;;;;;26.80;20.77;;;-0.80;99.90;;;;;;4981653;28;20487;-76
2024/01/19 04:49:12;;;;;;;28.80;20.50;;;-0.50;99.90;;;;;;4980163;28;20453;-76
2024/01/19 04:52:10;;;;;;;28.33;20.27;;;-0.80;99.90;;;;;;4979612;28;20460;-76
2024/01/19 04:55:06;;;;;;;29.60;19.90;;;-0.50;99.90;;;;;;4939055;29;20479;-76
2024/01/19 04:57:54;;;;;;;34.90;22.20;;;-0.80;99.90;;;;;;4937224;29;20475;-77
2024/01/19 05:00:34;;;;;;;28.70;21.13;;;-0.50;99.90;;;;;;4975915;28;20556;-78
2024/01/19 05:03:14;;;;;;;28.07;21.57;;;-0.50;99.90;;;;;;4976575;28;20497;-77
2024/01/19 05:05:57;;;;;;;29.13;21.20;;;-0.50;99.90;;;;;;4976891;28;20989;-77
2024/01/19 05:08:33;;;;;;;30.60;21.77;;;-0.50;99.90;;;;;;4976233;28;20460;-77
2024/01/19 05:11:42;;;;;;;30.83;21.80;;;-0.40;99.90;;;;;;4976375;28;20445;-77
2024/01/19 05:14:41;;;;;;;29.20;19.70;;;-0.50;99.90;;;;;;4976264;28;20504;-78
2024/01/19 05:20:49;;;;;;;25.23;19.33;;;-0.50;99.90;;;;;;4978663;28;20523;-77
2024/01/19 05:23:43;;;;;;;25.23;19.70;;;-0.50;99.90;;;;;;4979833;28;20500;-77
2024/01/19 05:27:00;;;;;;;;;;;;;;;;;;;;;
2024/01/19 05:36:15;;;;;;;23.80;19.30;;;-0.50;99.90;;;;;;4971815;28;21029;-77
2024/01/19 05:39:29;;;;;;;27.43;20.27;;;-0.50;99.90;;;;;;4975589;28;20483;-77
2024/01/19 05:42:44;;;;;;;21.73;18.33;;;-0.50;99.90;;;;;;4975233;28;20512;-77
2024/01/19 05:45:37;;;;;;;26.53;18.43;;;-0.30;99.90;;;;;;4975340;28;20879;-78
2024/01/19 05:48:28;;;;;;;24.73;18.90;;;-0.50;99.90;;;;;;4975625;28;20935;-78
2024/01/19 05:51:34;;;;;;;31.67;20.20;;;-0.50;99.90;;;;;;4975409;28;20445;-76
2024/01/19 05:54:53;;;;;;;27.97;21.67;;;-0.70;99.90;;;;;;4975153;28;20456;-78
2024/01/19 06:09:46;;;;;;;30.37;19.10;;;-0.50;99.90;;;;;;4993694;28;20448;-79
2024/01/19 06:12:45;;;;;;;32.80;20.90;;;-0.40;99.90;;;;;;4995863;28;20522;-79
2024/01/19 06:15:32;;;;;;;27.10;19.97;;;-0.40;99.90;;;;;;4995906;28;20550;-79
2024/01/19 06:18:10;;;;;;;26.73;19.70;;;-0.40;99.90;;;;;;4996321;28;20455;-79
2024/01/19 06:21:00;;;;;;;25.50;19.40;;;-0.40;99.90;;;;;;5006889;28;20504;-77
2024/01/19 06:23:46;;;;;;;27.47;19.80;;;-0.40;99.90;;;;;;4996583;28;20476;-78
2024/01/19 06:29:41;;;;;;;23.83;19.23;;;-0.40;99.90;;;;;;4998804;28;20730;-79
2024/01/19 06:32:57;;;;;;;28.60;19.83;;;-0.40;99.90;;;;;;4994480;28;20472;-76
2024/01/19 06:39:18;;;;;;;28.03;20.53;;;-0.40;99.90;;;;;;4999323;28;20451;-77
2024/01/19 06:42:33;;;;;;;;;;;;;;;;;;;;;
2024/01/19 06:45:37;;;;;;;24.17;19.50;;;-0.40;99.90;;;;;;4996806;28;20447;-79
2024/01/19 06:48:45;;;;;;;;;;;;;;;;;;;;;
2024/01/19 06:51:37;;;;;;;26.97;19.87;;;-0.50;99.90;;;;;;4997812;28;20459;-76
2024/01/19 06:54:36;;;;;;;29.87;19.87;;;-0.50;99.90;;;;;;4996536;28;20455;-79
2024/01/19 06:57:15;;;;;;;24.60;19.67;;;-0.50;99.90;;;;;;4997056;28;20587;-80
2024/01/19 06:59:53;;;;;;;29.83;21.40;;;-0.60;99.90;;;;;;4998338;28;20456;-80
2024/01/19 07:02:37;;;;;;;25.20;21.40;;;-0.50;99.90;;;;;;4996929;28;20499;-78
2024/01/19 07:05:27;;;;;;;46.07;34.00;;;-0.50;99.90;;;;;;4993869;28;20480;-78
2024/01/19 07:11:10;;;;;;;32.53;21.30;;;-0.50;99.90;;;;;;4934487;29;20468;-79
2024/01/19 07:13:52;;;;;;;26.37;21.20;;;-0.50;99.90;;;;;;4939819;28;20478;-78
2024/01/19 07:16:28;;;;;;;25.30;20.50;;;-0.50;99.90;;;;;;4977405;28;21086;-77
2024/01/19 07:19:16;;;;;;;31.67;20.90;;;-0.50;99.90;;;;;;4976715;28;20556;-76
2024/01/19 07:21:51;;;;;;;31.67;24.20;;;-0.30;99.90;;;;;;4979349;28;20519;-78
2024/01/19 07:24:26;;;;;;;31.40;23.97;;;0.20;99.90;;;;;;4978851;28;20879;-77
2024/01/19 07:27:03;;;;;;;33.20;23.87;;;0.30;99.90;;;;;;4979808;28;20456;-77
2024/01/19 07:29:51;;;;;;;31.93;23.30;;;0.20;99.90;;;;;;4990952;28;20837;-79
2024/01/19 07:32:35;;;;;;;36.03;24.30;;;-0.10;99.90;;;;;;4989982;28;20642;-78
2024/01/19 07:35:03;;;;;;;34.57;24.17;;;-0.10;99.90;;;;;;4987005;28;20880;-78
2024/01/19 07:37:44;;;;;;;31.37;23.70;;;-0.20;99.90;;;;;;4987923;28;20484;-76
2024/01/19 07:40:27;;;;;;;33.50;23.50;;;-0.30;99.90;;;;;;4989276;28;20524;-77
2024/01/19 07:43:04;;;;;;;28.53;21.97;;;-0.30;99.90;;;;;;4990050;28;20469;-76
2024/01/19 07:45:38;;;;;;;34.37;23.27;;;-0.40;99.90;;;;;;4990624;28;20445;-77
2024/01/19 07:48:13;;;;;;;32.17;23.30;;;-0.40;99.90;;;;;;4990087;28;20452;-79
2024/01/19 07:50:58;;;;;;;33.27;23.90;;;-0.40;99.90;;;;;;4982806;28;20453;-79
2024/01/19 07:53:32;;;;;;;33.37;24.80;;;-0.40;99.90;;;;;;4982981;28;20476;-79
2024/01/19 07:56:17;;;;;;;33.10;24.13;;;-0.40;99.90;;;;;;4982171;28;20572;-78
2024/01/19 07:59:04;;;;;;;37.27;25.20;;;-0.40;99.90;;;;;;4981916;28;20532;-77
2024/01/19 08:01:45;;;;;;;36.47;25.33;;;-0.60;99.90;;;;;;4980307;28;20519;-78
2024/01/19 08:04:24;;;;;;;32.07;24.70;;;-0.40;99.90;;;;;;4980023;28;20457;-79
2024/01/19 08:07:05;;;;;;;32.00;23.80;;;-0.30;99.90;;;;;;4980808;28;20445;-78
2024/01/19 08:09:49;;;;;;;32.73;24.97;;;-0.10;99.90;;;;;;4980313;28;20460;-80
2024/01/19 08:12:48;;;;;;;32.13;24.27;;;-0.20;99.90;;;;;;4979994;28;20476;-79
2024/01/19 08:15:29;;;;;;;33.10;24.60;;;-0.10;99.90;;;;;;4964000;28;20487;-78
2024/01/19 08:18:22;;;;;;;37.13;24.00;;;0.00;99.90;;;;;;4976859;28;20552;-77
2024/01/19 08:21:07;;;;;;;32.10;24.17;;;0.00;99.90;;;;;;4967182;28;20449;-79
2024/01/19 08:23:57;;;;;;;29.47;22.97;;;0.10;99.90;;;;;;4978473;28;20479;-78
2024/01/19 08:26:48;;;;;;;29.90;22.67;;;0.20;99.90;;;;;;4979963;28;20451;-79
2024/01/19 08:36:47;;;;;;;29.70;21.97;;;0.40;99.90;;;;;;4934335;28;20543;-78
2024/01/19 08:56:55;;;;;;;27.30;22.60;;;0.50;99.90;;;;;;4910072;29;20536;-79
2024/01/19 09:23:32;;;;;;;29.83;21.17;;;1.40;99.90;;;;;;4773203;29;20457;-78
2024/01/19 09:26:36;;;;;;;27.77;21.30;;;1.80;99.90;;;;;;4830422;29;20515;-78
2024/01/19 09:29:23;;;;;;;26.90;23.10;;;1.80;99.90;;;;;;4861269;29;20456;-77
2024/01/19 09:31:58;;;;;;;31.03;21.83;;;2.00;99.90;;;;;;4917181;29;20456;-77
2024/01/19 09:38:34;;;;;;;;;;;;;;;;;;;;;
2024/01/19 09:51:14;;;;;;;24.73;20.30;;;3.50;99.90;;;;;;4915044;29;20455;-76
2024/01/19 10:14:54;;;;;;;;;;;;;;;;;;;;;
2024/01/19 10:18:32;;;;;;;;;;;;;;;;;;;;;
2024/01/19 10:21:47;;;;;;;27.90;22.10;;;2.90;99.90;;;;;;4978602;28;20456;-79
2024/01/19 10:25:02;;;;;;;28.33;22.23;;;3.10;99.90;;;;;;4985334;28;20464;-78
2024/01/19 10:28:17;;;;;;;24.13;20.47;;;2.80;99.90;;;;;;4979570;28;20472;-78
2024/01/19 10:35:05;;;;;;;26.10;20.07;;;3.00;99.90;;;;;;4916516;29;20920;-78
2024/01/19 10:38:05;;;;;;;27.80;20.90;;;3.00;99.90;;;;;;4964046;28;20815;-78
2024/01/19 10:40:59;;;;;;;27.83;22.00;;;3.30;99.90;;;;;;4993826;28;20462;-78
2024/01/19 10:43:29;;;;;;;30.50;22.50;;;3.50;99.90;;;;;;4994013;28;20574;-80
2024/01/19 10:45:57;;;;;;;26.10;22.37;;;3.90;99.90;;;;;;4997703;28;20473;-79
2024/01/19 10:48:28;;;;;;;30.50;24.13;;;4.10;99.90;;;;;;4982559;28;20536;-80
2024/01/19 10:51:03;;;;;;;27.90;22.60;;;4.30;99.90;;;;;;4987253;28;20460;-77
2024/01/19 10:53:51;;;;;;;29.80;22.20;;;4.10;99.90;;;;;;4987699;28;20492;-78
2024/01/19 10:56:29;;;;;;;27.77;21.17;;;4.30;99.90;;;;;;4987254;28;20490;-79
2024/01/19 10:59:37;;;;;;;37.00;31.00;;;4.50;99.90;;;;;;4986032;28;20461;-79
2024/01/19 11:02:11;;;;;;;28.97;20.57;;;4.70;99.90;;;;;;4964173;29;20485;-80
2024/01/19 11:04:44;;;;;;;23.47;19.27;;;5.20;99.90;;;;;;4966725;28;20453;-79
2024/01/19 11:07:17;;;;;;;25.07;20.23;;;4.60;99.90;;;;;;4967762;28;20453;-78
2024/01/19 11:09:57;;;;;;;27.27;20.77;;;4.20;99.90;;;;;;4969020;28;20517;-79
2024/01/19 11:12:24;;;;;;;25.17;17.87;;;4.20;99.90;;;;;;4967672;28;20558;-79
2024/01/19 11:14:54;;;;;;;21.60;17.70;;;4.00;99.90;;;;;;4967948;29;20458;-80
2024/01/19 11:17:50;;;;;;;17.37;14.83;;;4.00;99.90;;;;;;4965395;29;20564;-80
2024/01/19 11:20:28;;;;;;;17.03;13.33;;;4.00;99.90;;;;;;4965984;28;20445;-80
2024/01/19 11:23:04;;;;;;;14.43;12.93;;;4.00;99.90;;;;;;4966732;28;20484;-80
2024/01/19 11:26:07;;;;;;;17.37;14.63;;;3.40;99.90;;;;;;4968082;28;20943;-78
2024/01/19 11:28:55;;;;;;;15.10;13.10;;;3.90;99.90;;;;;;4966600;28;20449;-79
2024/01/19 11:31:40;;;;;;;15.10;13.50;;;4.10;99.90;;;;;;4966663;28;20460;-78
2024/01/19 11:34:31;;;;;;;15.47;13.80;;;4.00;99.90;;;;;;4965450;28;20454;-80
2024/01/19 11:37:24;;;;;;;13.43;11.50;;;4.00;99.90;;;;;;4964759;28;20549;-80
2024/01/19 11:44:03;;;;;;;12.67;11.30;;;3.70;99.90;;;;;;4902608;29;20528;-79
2024/01/19 11:57:15;;;;;;;;;;;;;;;;;;;;;
2024/01/19 12:17:52;;;;;;;12.30;10.47;;;2.80;99.90;;;;;;4824124;29;20490;-80
2024/01/19 12:28:20;;;;;;;;;;;;;;;;;;;;;
2024/01/19 13:00:19;;;;;;;16.20;13.73;;;2.30;99.90;;;;;;4888230;28;20452;-80
2024/01/19 13:02:55;;;;;;;16.87;13.43;;;2.10;99.90;;;;;;4982404;28;21041;-77
2024/01/19 13:05:31;;;;;;;16.13;12.87;;;2.00;99.90;;;;;;4986104;28;20541;-78
2024/01/19 13:08:10;;;;;;;15.37;13.57;;;2.00;99.90;;;;;;4999720;28;20452;-78
2024/01/19 13:10:47;;;;;;;17.67;13.90;;;2.10;99.90;;;;;;5001550;28;20446;-80
2024/01/19 13:13:21;;;;;;;15.17;13.50;;;2.30;99.90;;;;;;5000170;28;20480;-78
2024/01/19 13:15:54;;;;;;;13.17;11.50;;;2.30;99.90;;;;;;5002572;28;20487;-79
2024/01/19 13:18:28;;;;;;;16.47;11.93;;;2.40;99.90;;;;;;5001779;28;20571;-78
2024/01/19 13:21:10;;;;;;;14.23;10.93;;;2.40;99.90;;;;;;5001041;28;20462;-78
2024/01/19 13:23:40;;;;;;;16.93;12.93;;;2.40;99.90;;;;;;5004822;28;20461;-77
2024/01/19 13:26:17;;;;;;;18.27;14.60;;;2.20;99.90;;;;;;5001088;28;21017;-77
2024/01/19 13:28:48;;;;;;;17.80;14.40;;;2.30;99.90;;;;;;5000979;28;20488;-78
2024/01/19 13:31:26;;;;;;;18.90;15.37;;;1.80;99.90;;;;;;5003194;28;20432;-81
2024/01/19 13:34:03;;;;;;;20.40;15.67;;;2.10;99.90;;;;;;5002615;28;20842;-79
2024/01/19 13:36:42;;;;;;;19.07;15.93;;;2.00;99.90;;;;;;5000640;28;20862;-80
2024/01/19 13:39:11;;;;;;;17.37;14.27;;;1.70;99.90;;;;;;5000895;28;20437;-77
2024/01/19 13:41:40;;;;;;;17.27;14.70;;;1.90;99.90;;;;;;4999439;28;20449;-78
2024/01/19 13:44:08;;;;;;;18.30;14.57;;;1.90;99.90;;;;;;5000259;28;20507;-80
2024/01/19 13:46:45;;;;;;;19.20;14.70;;;1.80;99.90;;;;;;5002294;28;20454;-80
2024/01/19 13:49:19;;;;;;;20.10;14.80;;;1.80;99.90;;;;;;5001880;28;20460;-80
2024/01/19 13:51:54;;;;;;;18.23;13.23;;;1.60;99.90;;;;;;5001931;28;20483;-80
2024/01/19 13:54:27;;;;;;;21.23;14.00;;;1.60;99.90;;;;;;5000367;28;20438;-78
2024/01/19 13:56:56;;;;;;;19.67;16.50;;;1.70;99.90;;;;;;5002897;28;20523;-78
2024/01/19 13:59:29;;;;;;;15.60;13.47;;;1.70;99.90;;;;;;5002474;28;20480;-78
2024/01/19 14:02:08;;;;;;;17.60;15.17;;;1.70;99.90;;;;;;5001860;28;20500;-80
2024/01/19 14:04:37;;;;;;;16.50;13.13;;;1.70;99.90;;;;;;5003583;28;20439;-78
2024/01/19 14:07:14;;;;;;;16.83;13.97;;;1.80;99.90;;;;;;5002541;28;20445;-78
2024/01/19 14:09:47;;;;;;;16.53;12.33;;;1.70;99.90;;;;;;5002664;28;20446;-79
2024/01/19 14:12:18;;;;;;;19.90;14.30;;;1.70;99.90;;;;;;5002676;28;20877;-80
2024/01/19 14:14:56;;;;;;;17.07;14.30;;;1.60;99.90;;;;;;5001388;28;20471;-80
2024/01/19 14:17:28;;;;;;;16.83;13.63;;;1.70;99.90;;;;;;5002576;28;20993;-80
2024/01/19 14:19:57;;;;;;;18.03;14.10;;;1.60;99.90;;;;;;5003717;28;20480;-79
2024/01/19 14:22:27;;;;;;;17.10;14.10;;;1.70;99.90;;;;;;5004405;28;20465;-79
2024/01/19 14:24:57;;;;;;;17.30;14.43;;;1.50;99.90;;;;;;5006338;28;20448;-79
2024/01/19 14:27:30;;;;;;;19.23;14.33;;;1.40;99.90;;;;;;5008406;28;20467;-77
2024/01/19 14:30:00;;;;;;;19.47;14.20;;;1.40;99.90;;;;;;5008159;28;20453;-78
2024/01/19 14:44:41;;;;;;;22.10;16.17;;;1.10;99.90;;;;;;5002952;28;20488;-79
2024/01/19 14:47:16;;;;;;;22.07;15.67;;;1.00;99.90;;;;;;5002929;28;20456;-78
2024/01/19 14:49:50;;;;;;;16.80;13.47;;;1.10;99.90;;;;;;5006657;28;20467;-79
2024/01/19 14:59:01;;;;;;;22.73;14.50;;;1.20;99.90;;;;;;4986097;28;20476;-79
2024/01/19 15:04:56;;;;;;;21.03;15.67;;;1.40;99.90;;;;;;5115785;22;20488;-77
2024/01/19 15:15:15;;;;;;;;;;;;;;;;;;;;;
2024/01/19 15:21:23;;;;;;;21.53;15.77;;;1.30;99.90;;;;;;4873640;29;20510;-79
2024/01/19 15:34:38;;;;;;;23.30;17.17;;;0.60;99.90;;;;;;5054071;22;20495;-80
2024/01/19 15:41:41;;;;;;;24.00;16.60;;;0.70;99.90;;;;;;4903151;29;20510;-79
2024/01/19 15:47:55;;;;;;;25.87;16.93;;;0.40;99.90;;;;;;4824689;29;20448;-80
2024/01/19 16:00:48;;;;;;;21.33;16.50;;;0.30;99.90;;;;;;4911745;29;20506;-78
2024/01/19 16:03:21;;;;;;;24.90;16.63;;;0.10;99.90;;;;;;4941235;28;20471;-80
2024/01/19 16:05:55;;;;;;;21.40;15.80;;;0.00;99.90;;;;;;4998039;28;20440;-80
2024/01/19 16:08:27;;;;;;;24.00;17.43;;;0.00;99.90;;;;;;5000981;28;20451;-78
2024/01/19 16:11:09;;;;;;;20.50;16.33;;;-0.10;99.90;;;;;;4999842;28;20444;-80
2024/01/19 16:13:43;;;;;;;20.77;15.93;;;0.00;99.90;;;;;;4996752;28;20460;-77
2024/01/19 16:16:32;;;;;;;25.57;16.13;;;0.00;99.90;;;;;;4996038;28;20539;-78
2024/01/19 16:41:30;;;;;;;26.27;17.00;;;-0.30;99.90;;;;;;4981983;28;20544;-79
2024/01/19 16:44:11;;;;;;;24.00;17.47;;;-0.30;99.90;;;;;;4993933;28;20469;-78
2024/01/19 16:46:42;;;;;;;25.07;17.33;;;-0.30;99.90;;;;;;4995538;28;20468;-79
2024/01/19 16:49:12;;;;;;;27.03;16.20;;;-0.30;99.90;;;;;;4996893;28;20457;-77
2024/01/19 16:51:42;;;;;;;23.53;15.90;;;-0.30;99.90;;;;;;4997392;28;20460;-80
2024/01/19 16:54:16;;;;;;;22.60;16.33;;;-0.30;99.90;;;;;;5000385;28;20881;-78
2024/01/19 16:56:53;;;;;;;23.80;16.90;;;-0.30;99.90;;;;;;5000451;28;20914;-80
2024/01/19 16:59:21;;;;;;;26.83;17.43;;;-0.40;99.90;;;;;;5001949;28;20512;-78
2024/01/19 17:01:56;;;;;;;22.93;17.20;;;-0.40;99.90;;;;;;5000584;28;20484;-77
2024/01/19 17:08:34;;;;;;;25.03;17.90;;;-0.40;99.90;;;;;;4896517;29;20458;-79
2024/01/19 17:17:48;;;;;;;25.93;18.40;;;-0.30;99.90;;;;;;4911797;29;20452;-77
2024/01/19 17:20:59;;;;;;;24.40;16.60;;;-0.20;99.90;;;;;;4917141;29;20873;-79
2024/01/19 17:27:48;;;;;;;23.63;17.20;;;-0.10;99.90;;;;;;4843331;29;20447;-78
2024/01/19 17:30:35;;;;;;;25.43;17.87;;;-0.10;99.90;;;;;;4946226;28;20526;-79
2024/01/19 17:33:38;;;;;;;23.73;16.87;;;-0.10;99.90;;;;;;4996902;28;20496;-79
2024/01/19 17:36:16;;;;;;;26.80;18.27;;;-0.10;99.90;;;;;;4994667;28;20960;-78
2024/01/19 17:38:57;;;;;;;32.27;19.60;;;0.60;99.90;;;;;;4995592;28;20828;-77
2024/01/19 17:41:46;;;;;;;25.43;18.97;;;0.50;99.90;;;;;;4994837;28;20448;-79
2024/01/19 17:44:35;;;;;;;26.53;18.77;;;0.30;99.90;;;;;;4995541;28;20451;-78
2024/01/19 17:50:45;;;;;;;21.33;17.10;;;0.10;99.90;;;;;;4956133;28;20467;-79
2024/01/19 18:06:14;;;;;;;24.37;20.97;;;-0.40;99.90;;;;;;4925625;29;21070;-78
2024/01/19 18:22:55;;;;;;;19.40;15.43;;;-0.20;99.90;;;;;;4874746;29;20583;-80
2024/01/19 21:09:47;;;;;;;;;;;;;;;;;;;;;
2024/01/19 21:12:48;;;;;;;21.50;15.17;;;-0.50;99.90;;;;;;4975083;28;20462;-79
2024/01/19 22:14:32;;;;;;;;;;;;;;;;;;;;;
2024/01/19 22:20:58;;;;;;;21.80;15.50;;;-0.40;99.90;;;;;;5053905;28;20444;-80
2024/01/19 22:44:37;;;;;;;;;;;;;;;;;;;;;
2024/01/19 23:05:06;;;;;;;;;;;;;;;;;;;;;
